Terminal Aerodrome Forecast
Issued by NWS Tampa Bay Area, FL

Home | Current Version | Previous Version | Text Only | Print | Product List | Glossary On
Versions: 1 2 3 4 5 6 7 8 9 10 11 12 13 14 15 16 17 18 19
000
FTUS42 KTBW 251351 AAA
TAFSRQ
TAF AMD
KSRQ 251351Z 2514/2612 11007KT P6SM BKN015
     FM251600 11007KT P6SM SCT025 SCT100 BKN250
     FM251800 13007KT P6SM VCTS SCT035CB BKN050 BKN100
      TEMPO 2518/2522 VRB15G25KT 2SM +TSRA BKN025CB
     FM252200 18008KT 6SM SHRA VCTS BKN030CB OVC080
     FM260200 11008KT P6SM SCT025 BKN050 OVC080=

USA.gov is the U.S. government's official web portal to all federal, state and local government web resources and services.